Weather History for KGUC - October, 2011

Change the Weather History Date:

Monday, October 31, 2011

  Actual Average Record
Temperature  
Mean Temperature 37 °F -  
Max Temperature 57 °F 47 °F 60 °F (1999)
Min Temperature 17 °F 19 °F 15 °F (2006)
Degree Days  
Heating Degree Days 28    
Moisture  
Dew Point 18 °F    
Average Humidity 55    
Maximum Humidity 86    
Minimum Humidity 21    
Precipitation  
Precipitation 0.00 in - - ()
Sea Level Pressure  
Sea Level Pressure 30.28 in    
Wind  
Wind Speed 2 mph (WNW)    
Max Wind Speed 17 mph    
Max Gust Speed 23 mph    
Visibility 10 miles    
Events      
Averages and records for this station are not official NWS values.
T = Trace of Precipitation, MM = Missing Value Source: NWS Daily Summary

Daily Weather History Graph

Daily Weather History Graph

Search for Another Location

Airport or City:

Trip Planner

Search our weather history database for the weather conditions in past years. The results will help you decide how hot, cold, wet, or windy it might be!

Date:

Astronomy

Oct. 31, 2011 Rise Set
Actual Time 7:33 AM MDT 6:09 PM MDT
Civil Twilight 7:05 AM MDT 6:36 PM MDT
Nautical Twilight 6:34 AM MDT 7:07 PM MDT
Astronomical Twilight 6:03 AM MDT 7:38 PM MDT
Moon 12:40 PM MDT (10/31) 10:49 PM MDT (10/31)
Length of Visible Light 11h 30m
Length of Day
10h 36m
Waxing Crescent, 30% of the Moon is Illuminated
Oct 31
Waxing Crescent
Nov 2
First Quarter
Nov 10
Full
Nov 18
Last Quarter
Nov 24
New

Hourly Weather History & Observations

Time (MDT) Temp. Windchill Dew Point Humidity Pressure Visibility Wind Dir Wind Speed Gust Speed Precip Events Conditions
12:15 AM 28.4 °F - 17.6 °F 64% 30.39 in 10.0 mi Calm Calm - N/A   Clear
1:15 AM 24.8 °F - 17.6 °F 74% 30.39 in 10.0 mi Calm Calm - N/A   Clear
1:55 AM 26.6 °F - 17.6 °F 69% 30.39 in 10.0 mi Calm Calm - N/A   Clear
2:15 AM 24.8 °F - 17.6 °F 74% 30.40 in 10.0 mi Calm Calm - N/A   Clear
2:35 AM 24.8 °F - 17.6 °F 74% 30.39 in 10.0 mi Calm Calm - N/A   Clear
2:55 AM 21.2 °F - 15.8 °F 80% 30.39 in 10.0 mi Calm Calm - N/A   Clear
3:15 AM 21.2 °F - 15.8 °F 80% 30.39 in 10.0 mi Calm Calm - N/A   Clear
3:35 AM 19.4 °F 14.3 °F 15.8 °F 86% 30.39 in 10.0 mi NNE 3.5 mph - N/A   Clear
4:15 AM 21.2 °F - 15.8 °F 80% 30.39 in 10.0 mi North - - N/A   Clear
4:35 AM 21.2 °F - 15.8 °F 80% 30.38 in 10.0 mi Calm Calm - N/A   Clear
4:55 AM 19.4 °F - 15.8 °F 86% 30.38 in 10.0 mi Calm Calm - N/A   Clear
5:15 AM 19.4 °F - 14.0 °F 80% 30.39 in 10.0 mi Calm Calm - N/A   Clear
5:55 AM 19.4 °F 14.3 °F 15.8 °F 86% 30.38 in 10.0 mi ENE 3.5 mph - N/A   Clear
6:15 AM 19.4 °F - 15.8 °F 86% 30.38 in 10.0 mi Calm Calm - N/A   Clear
6:35 AM 19.4 °F - 12.2 °F 74% 30.38 in 10.0 mi Calm Calm - N/A   Clear
6:55 AM 19.4 °F - 14.0 °F 80% 30.38 in 10.0 mi Calm Calm - N/A   Clear
7:55 AM 17.6 °F - 12.2 °F 79% 30.37 in 10.0 mi Calm Calm - N/A   Clear
8:15 AM 19.4 °F - 14.0 °F 80% 30.38 in 10.0 mi Calm Calm - N/A   Clear
8:35 AM 21.2 °F - 15.8 °F 80% 30.37 in 10.0 mi Calm Calm - N/A   Clear
8:55 AM 21.2 °F - 15.8 °F 80% 30.38 in 10.0 mi Calm Calm - N/A   Clear
9:15 AM 24.8 °F - 15.8 °F 69% 30.37 in 10.0 mi Calm Calm - N/A   Clear
10:15 AM 30.2 °F - 17.6 °F 60% 30.36 in 10.0 mi Calm Calm - N/A   Clear
10:35 AM 33.8 °F - 19.4 °F 56% 30.35 in 10.0 mi Calm Calm - N/A   Clear
11:15 AM 35.6 °F - 19.4 °F 52% 30.33 in 10.0 mi Calm Calm - N/A   Clear
11:35 AM 39.2 °F - 21.2 °F 49% 30.32 in 10.0 mi Calm Calm - N/A   Clear
11:55 AM 41.0 °F - 19.4 °F 42% 30.31 in 10.0 mi Calm Calm - N/A   Clear
12:15 PM 42.8 °F - 21.2 °F 42% 30.30 in 10.0 mi Calm Calm - N/A   Clear
12:35 PM 44.6 °F - 21.2 °F 39% 30.28 in 10.0 mi Calm Calm - N/A   Clear
12:55 PM 44.6 °F - 21.2 °F 39% 30.26 in 10.0 mi Calm Calm - N/A   Clear
1:15 PM 46.4 °F - 21.2 °F 37% 30.25 in 10.0 mi Calm Calm - N/A   Clear
1:55 PM 50.0 °F - 21.2 °F 32% 30.22 in 10.0 mi Calm Calm - N/A   Clear
2:15 PM 53.6 °F - 23.0 °F 30% 30.20 in 10.0 mi Calm Calm - N/A   Clear
2:55 PM 55.4 °F - 23.0 °F 29% 30.18 in 10.0 mi NW 3.5 mph - N/A   Clear
3:15 PM 57.2 °F - 21.2 °F 25% 30.17 in 10.0 mi WSW 17.3 mph 21.9 mph N/A   Clear
3:35 PM 57.2 °F - 19.4 °F 23% 30.17 in 10.0 mi WSW 15.0 mph 18.4 mph N/A   Clear
3:55 PM 57.2 °F - 19.4 °F 23% 30.17 in 10.0 mi WSW 12.7 mph 19.6 mph N/A   Clear
4:15 PM 57.2 °F - 19.4 °F 23% 30.17 in 10.0 mi WSW 12.7 mph 19.6 mph N/A   Clear
4:35 PM 57.2 °F - 17.6 °F 21% 30.17 in 10.0 mi WSW 10.4 mph 23.0 mph N/A   Clear
4:55 PM 55.4 °F - 17.6 °F 23% 30.17 in 10.0 mi West 11.5 mph 23.0 mph N/A   Clear
5:15 PM 55.4 °F - 17.6 °F 23% 30.17 in 10.0 mi WSW 10.4 mph - N/A   Clear
5:35 PM 55.4 °F - 19.4 °F 25% 30.17 in 10.0 mi West 12.7 mph - N/A   Clear
5:55 PM 53.6 °F - 19.4 °F 26% 30.17 in 10.0 mi WNW 10.4 mph - N/A   Clear
6:15 PM 51.8 °F - 19.4 °F 28% 30.18 in 10.0 mi WNW 10.4 mph - N/A   Clear
7:15 PM 44.6 °F 43.1 °F 19.4 °F 37% 30.20 in 10.0 mi WNW 3.5 mph - N/A   Clear
7:35 PM 42.8 °F 40.1 °F 19.4 °F 39% 30.20 in 10.0 mi NNW 4.6 mph - N/A   Clear
7:55 PM 42.8 °F 41.1 °F 19.4 °F 39% 30.20 in 10.0 mi NNW 3.5 mph - N/A   Clear
8:15 PM 39.2 °F 37.0 °F 19.4 °F 45% 30.21 in 10.0 mi North 3.5 mph - N/A   Clear
8:35 PM 37.4 °F - 19.4 °F 48% 30.21 in 10.0 mi Calm Calm - N/A   Clear
9:15 PM 37.4 °F 34.9 °F 19.4 °F 48% 30.21 in 10.0 mi NNE 3.5 mph - N/A   Clear
9:35 PM 35.6 °F - 19.4 °F 52% 30.21 in 10.0 mi Calm Calm - N/A   Clear
10:15 PM 33.8 °F - 19.4 °F 56% 30.22 in 10.0 mi Calm Calm - N/A   Clear
10:35 PM 30.2 °F - 17.6 °F 60% 30.22 in 10.0 mi Calm Calm - N/A   Clear
10:55 PM 30.2 °F 26.7 °F 19.4 °F 64% 30.22 in 9.0 mi North 3.5 mph - N/A   Clear
11:15 PM 30.2 °F - 17.6 °F 60% 30.22 in 10.0 mi Calm Calm - N/A   Clear
11:35 PM 28.4 °F - 17.6 °F 64% 30.22 in 10.0 mi Calm Calm - N/A   Clear